Time;durP1;ratioP1;P1;durP2;ratioP2;P2;SDS_P1;SDS_P2;PMS_P1;PMS_P2;Temp;Humidity;BMP_temperature;BMP_pressure;BME280_temperature;BME280_humidity;BME280_pressure;Samples;Min_cycle;Max_cycle;Signal;HPM_P1;HPM_P2
2021/01/29 00:00:17;;;;;;;13.18;8.85;;;1.70;95.40;;;;;;5102912;28;20028;-82
2021/01/29 00:02:43;;;;;;;11.50;8.40;;;1.70;95.20;;;;;;5093752;28;20343;-83
2021/01/29 00:05:09;;;;;;;11.45;7.10;;;1.70;95.20;;;;;;5094249;28;20486;-81
2021/01/29 00:07:35;;;;;;;13.50;7.95;;;1.70;95.00;;;;;;5094598;28;20370;-83
2021/01/29 00:10:04;;;;;;;12.48;7.20;;;1.60;95.00;;;;;;5094832;28;20019;-83
2021/01/29 00:12:30;;;;;;;13.80;8.05;;;1.70;95.10;;;;;;5094006;28;20107;-82
2021/01/29 00:14:56;;;;;;;10.80;8.45;;;1.70;94.90;;;;;;5092306;28;20525;-79
2021/01/29 00:17:22;;;;;;;12.15;7.75;;;1.70;94.90;;;;;;5093844;28;20103;-82
2021/01/29 00:19:48;;;;;;;15.13;8.68;;;1.70;94.80;;;;;;5092632;28;20024;-82
2021/01/29 00:22:13;;;;;;;12.23;9.00;;;1.70;94.70;;;;;;5092401;28;20469;-81
2021/01/29 00:24:39;;;;;;;12.10;7.25;;;1.60;94.70;;;;;;5092363;28;20067;-80
2021/01/29 00:27:05;;;;;;;12.45;8.40;;;1.60;94.70;;;;;;5093640;28;20024;-81
2021/01/29 00:29:32;;;;;;;15.90;8.30;;;1.60;94.90;;;;;;5093557;28;20030;-81
2021/01/29 00:31:59;;;;;;;10.63;8.53;;;1.60;94.90;;;;;;5093596;28;20108;-80
2021/01/29 00:34:25;;;;;;;15.43;9.00;;;1.60;94.80;;;;;;5093329;28;20024;-81
2021/01/29 00:36:51;;;;;;;13.38;8.10;;;1.60;94.80;;;;;;5091915;28;20024;-79
2021/01/29 00:39:16;;;;;;;17.38;9.38;;;1.70;94.60;;;;;;5093334;28;20076;-79
2021/01/29 00:41:42;;;;;;;16.40;8.75;;;1.70;94.70;;;;;;5093238;28;20012;-80
2021/01/29 00:44:08;;;;;;;13.55;8.43;;;1.70;94.60;;;;;;5093311;28;20059;-80
2021/01/29 00:46:34;;;;;;;12.00;8.30;;;1.70;94.50;;;;;;5091919;28;20031;-79
2021/01/29 00:49:00;;;;;;;14.20;9.43;;;1.70;94.50;;;;;;5093240;28;20020;-81
2021/01/29 00:51:26;;;;;;;13.60;8.52;;;1.70;94.50;;;;;;5093712;28;20449;-82
2021/01/29 00:53:52;;;;;;;14.80;8.70;;;1.80;94.50;;;;;;5095280;28;20020;-81
2021/01/29 00:56:18;;;;;;;13.35;8.02;;;1.80;94.40;;;;;;5093567;28;20020;-80
2021/01/29 00:58:44;;;;;;;18.13;9.95;;;1.70;94.20;;;;;;5093080;28;20432;-81
2021/01/29 01:01:09;;;;;;;15.43;8.50;;;1.70;94.40;;;;;;5092820;28;20054;-82
2021/01/29 01:03:35;;;;;;;15.32;9.43;;;1.60;94.80;;;;;;5091512;28;20032;-78
2021/01/29 01:06:01;;;;;;;13.88;8.80;;;1.70;94.60;;;;;;5091698;28;20038;-78
2021/01/29 01:08:27;;;;;;;14.90;10.82;;;1.70;94.50;;;;;;5091374;28;20031;-78
2021/01/29 01:10:53;;;;;;;14.77;9.40;;;1.70;94.50;;;;;;5092765;28;20114;-78
2021/01/29 01:13:20;;;;;;;15.18;9.27;;;1.70;94.50;;;;;;5091501;28;20473;-76
2021/01/29 01:15:45;;;;;;;15.07;10.65;;;1.70;94.50;;;;;;5088576;28;20432;-78
2021/01/29 01:18:11;;;;;;;18.42;10.73;;;1.70;94.50;;;;;;5092418;28;20024;-78
2021/01/29 01:20:37;;;;;;;16.85;9.70;;;1.60;94.40;;;;;;5092266;28;20500;-80
2021/01/29 01:23:04;;;;;;;16.35;10.75;;;1.60;94.50;;;;;;5092430;28;20477;-79
2021/01/29 01:25:30;;;;;;;17.98;10.57;;;1.50;94.40;;;;;;5091277;28;20030;-79
2021/01/29 01:27:57;;;;;;;16.95;10.65;;;1.60;94.50;;;;;;5091258;28;20028;-78
2021/01/29 01:30:29;;;;;;;17.83;10.30;;;1.60;94.60;;;;;;5090915;28;20066;-78
2021/01/29 01:32:55;;;;;;;18.02;11.40;;;1.60;94.80;;;;;;5091202;28;20073;-78
2021/01/29 01:35:21;;;;;;;16.85;10.80;;;1.60;94.60;;;;;;5090893;28;20466;-79
2021/01/29 01:37:48;;;;;;;21.35;11.85;;;1.70;94.50;;;;;;5093189;28;20400;-79
2021/01/29 01:40:15;;;;;;;18.27;10.05;;;1.70;94.50;;;;;;5095677;28;20389;-80
2021/01/29 01:42:41;;;;;;;16.67;11.15;;;1.70;94.60;;;;;;5099925;28;20428;-80
2021/01/29 01:45:28;;;;;;;22.35;10.10;;;1.70;94.50;;;;;;5092416;28;20016;-79
2021/01/29 01:47:57;;;;;;;;;;;1.60;94.40;;;;;;5099587;28;20021;-79
2021/01/29 01:50:34;;;;;;;23.17;11.38;;;1.60;94.40;;;;;;5092377;28;20334;-78
2021/01/29 01:53:04;;;;;;;17.23;10.60;;;1.60;94.40;;;;;;5092014;28;20013;-79
2021/01/29 01:55:34;;;;;;;15.73;11.57;;;1.50;94.30;;;;;;5092051;28;20028;-78
2021/01/29 01:58:01;;;;;;;22.23;10.77;;;1.50;94.50;;;;;;5091935;28;20595;-79
2021/01/29 02:00:32;;;;;;;22.27;13.32;;;1.50;94.60;;;;;;5090990;28;20028;-78
2021/01/29 02:03:06;;;;;;;22.60;11.60;;;1.50;94.60;;;;;;5092317;28;20397;-80
2021/01/29 02:05:38;;;;;;;23.20;13.07;;;1.60;94.60;;;;;;5097506;28;20020;-79
2021/01/29 02:08:07;;;;;;;18.83;12.63;;;1.50;94.40;;;;;;5096094;28;20024;-79
2021/01/29 02:10:33;;;;;;;23.00;14.18;;;1.50;94.50;;;;;;5096239;28;20020;-78
2021/01/29 02:13:01;;;;;;;20.17;12.98;;;1.40;94.50;;;;;;5096388;28;20020;-78
2021/01/29 02:15:28;;;;;;;;;;;1.40;94.70;;;;;;5102322;28;20377;-78
2021/01/29 02:18:15;;;;;;;22.70;12.57;;;1.50;94.70;;;;;;5102756;28;19926;-79
2021/01/29 02:21:02;;;;;;;27.90;14.88;;;1.50;94.70;;;;;;5105313;28;20087;-79
2021/01/29 02:23:31;;;;;;;;;;;1.60;94.80;;;;;;5092767;28;20089;-77
2021/01/29 02:26:34;;;;;;;24.80;13.43;;;1.50;94.60;;;;;;5094613;28;20353;-78
2021/01/29 02:29:26;;;;;;;23.85;13.15;;;1.50;94.50;;;;;;5089757;28;20434;-78
2021/01/29 02:32:01;;;;;;;21.15;13.65;;;1.50;94.70;;;;;;5091659;28;20024;-77
2021/01/29 02:34:42;;;;;;;22.25;12.30;;;1.60;94.70;;;;;;5094240;28;20020;-79
2021/01/29 02:37:34;;;;;;;24.88;11.60;;;1.60;94.50;;;;;;5101123;28;20032;-79
2021/01/29 02:40:42;;;;;;;21.70;13.00;;;1.60;94.60;;;;;;5088602;28;20461;-78
2021/01/29 02:43:25;;;;;;;22.50;12.63;;;1.50;94.60;;;;;;5080621;28;20040;-78
2021/01/29 02:46:08;;;;;;;23.13;12.63;;;1.50;94.70;;;;;;5095160;28;20047;-79
2021/01/29 02:49:02;;;;;;;22.50;13.73;;;1.50;94.60;;;;;;5095485;28;20023;-78
2021/01/29 02:51:38;;;;;;;20.10;11.27;;;1.50;94.70;;;;;;5095549;28;20084;-78
2021/01/29 02:54:22;;;;;;;16.92;10.82;;;1.40;94.70;;;;;;5097780;28;20024;-78
2021/01/29 02:56:55;;;;;;;16.85;10.90;;;1.50;94.70;;;;;;5096644;28;20050;-77
2021/01/29 02:59:35;;;;;;;18.40;11.77;;;1.50;94.80;;;;;;5095334;28;20035;-80
2021/01/29 03:02:10;;;;;;;18.27;10.77;;;1.50;94.70;;;;;;5083102;28;20480;-79
2021/01/29 03:04:53;;;;;;;16.42;10.15;;;1.50;94.70;;;;;;5095646;28;20024;-79
2021/01/29 03:07:25;;;;;;;19.45;10.93;;;1.40;94.90;;;;;;5093823;28;20478;-79
2021/01/29 03:10:30;;;;;;;18.40;11.07;;;1.40;95.00;;;;;;5095272;28;20020;-78
2021/01/29 03:13:05;;;;;;;15.98;11.07;;;1.40;95.00;;;;;;5080185;28;20393;-80
2021/01/29 03:15:41;;;;;;;15.32;9.60;;;1.40;95.00;;;;;;5084381;28;20051;-79
2021/01/29 03:18:38;;;;;;;16.15;10.32;;;1.30;94.90;;;;;;5102585;28;20057;-80
2021/01/29 03:21:12;;;;;;;16.52;9.85;;;1.20;95.10;;;;;;5089902;28;20040;-79
2021/01/29 03:23:46;;;;;;;16.02;9.52;;;1.20;95.10;;;;;;5091031;28;20024;-81
2021/01/29 03:26:27;;;;;;;16.60;11.10;;;1.30;95.20;;;;;;5093436;28;20455;-80
2021/01/29 03:28:58;;;;;;;16.70;9.93;;;1.30;95.20;;;;;;5093445;28;20126;-78
2021/01/29 03:31:27;;;;;;;12.82;10.07;;;1.30;95.10;;;;;;5093865;28;20024;-78
2021/01/29 03:34:09;;;;;;;12.75;8.55;;;1.30;95.10;;;;;;5094574;28;20019;-80
2021/01/29 03:36:43;;;;;;;14.38;9.23;;;1.30;95.10;;;;;;5093196;28;20146;-80
2021/01/29 03:39:15;;;;;;;16.02;9.90;;;1.20;95.10;;;;;;5094334;28;20099;-80
2021/01/29 03:41:46;;;;;;;15.75;10.15;;;1.20;95.10;;;;;;5094802;28;20027;-78
2021/01/29 03:44:22;;;;;;;14.48;9.20;;;1.10;95.00;;;;;;5094825;28;20446;-79
2021/01/29 03:47:10;;;;;;;14.52;9.98;;;1.00;95.10;;;;;;5095312;28;20093;-79
2021/01/29 03:49:51;;;;;;;13.40;8.10;;;1.10;95.30;;;;;;5094834;28;20077;-79
2021/01/29 03:52:35;;;;;;;15.68;9.20;;;1.10;95.20;;;;;;5094636;28;20056;-79
2021/01/29 03:55:17;;;;;;;17.88;11.50;;;1.10;95.10;;;;;;5080261;28;20020;-80
2021/01/29 03:57:49;;;;;;;16.10;10.82;;;1.10;95.20;;;;;;5094424;28;20024;-79
2021/01/29 04:00:31;;;;;;;13.63;8.57;;;1.20;95.30;;;;;;5094316;28;20020;-79
2021/01/29 04:03:02;;;;;;;17.88;10.45;;;1.30;94.90;;;;;;5094106;28;20122;-80
2021/01/29 04:06:09;;;;;;;15.75;11.15;;;1.30;95.00;;;;;;5085376;28;20024;-78
2021/01/29 04:08:58;;;;;;;15.60;10.55;;;1.30;95.00;;;;;;5092649;28;20060;-80
2021/01/29 04:11:36;;;;;;;16.50;10.57;;;1.20;94.80;;;;;;5093609;28;20085;-79
2021/01/29 04:14:13;;;;;;;14.75;9.10;;;1.20;94.90;;;;;;5092654;28;20367;-79
2021/01/29 04:16:42;;;;;;;13.95;8.93;;;1.30;94.90;;;;;;5094051;28;20027;-79
2021/01/29 04:19:28;;;;;;;15.93;11.68;;;1.30;94.90;;;;;;5102006;28;20032;-79
2021/01/29 04:22:30;;;;;;;15.25;9.38;;;1.40;94.80;;;;;;5091970;28;20083;-79
2021/01/29 04:25:09;;;;;;;14.50;10.18;;;1.30;94.70;;;;;;5086622;28;20153;-79
2021/01/29 04:27:38;;;;;;;14.35;9.43;;;1.20;94.70;;;;;;5093695;28;20077;-80
2021/01/29 04:30:18;;;;;;;14.98;9.98;;;1.20;94.80;;;;;;5093477;28;20027;-79
2021/01/29 04:32:49;;;;;;;14.30;9.55;;;1.10;94.60;;;;;;5094084;28;20023;-79
2021/01/29 04:35:19;;;;;;;14.98;11.35;;;1.00;94.60;;;;;;5093291;28;20111;-77
2021/01/29 04:38:10;;;;;;;21.02;11.90;;;1.00;94.70;;;;;;5093394;28;20086;-79
2021/01/29 04:40:51;;;;;;;18.08;11.57;;;0.90;94.90;;;;;;5093375;28;20012;-79
2021/01/29 04:43:55;;;;;;;18.65;10.70;;;0.90;95.10;;;;;;5093419;28;20100;-80
2021/01/29 04:46:25;;;;;;;17.95;10.88;;;0.90;95.30;;;;;;5088557;28;20111;-78
2021/01/29 04:49:13;;;;;;;20.15;12.15;;;0.90;95.00;;;;;;5093298;28;20020;-78
2021/01/29 04:52:13;;;;;;;16.08;12.13;;;1.00;95.10;;;;;;5079728;28;20034;-79
2021/01/29 04:55:27;;;;;;;15.20;10.82;;;1.00;95.00;;;;;;5093589;28;20499;-78
2021/01/29 04:58:15;;;;;;;16.20;10.18;;;1.00;95.10;;;;;;5088359;28;20036;-80
2021/01/29 05:01:00;;;;;;;18.00;10.15;;;1.00;95.10;;;;;;5086373;28;20028;-80
2021/01/29 05:03:44;;;;;;;17.60;11.25;;;1.00;95.10;;;;;;5093984;28;20028;-80
2021/01/29 05:06:55;;;;;;;21.05;11.95;;;1.00;95.10;;;;;;5093008;28;20024;-79
2021/01/29 05:10:07;;;;;;;14.88;9.18;;;1.00;95.20;;;;;;5075868;28;20093;-79
2021/01/29 05:13:00;;;;;;;17.05;10.70;;;1.00;95.00;;;;;;5095504;28;20015;-80
2021/01/29 05:15:53;;;;;;;14.60;10.20;;;0.90;95.20;;;;;;5087179;28;20022;-79
2021/01/29 05:18:45;;;;;;;16.65;11.45;;;1.00;95.30;;;;;;5096091;28;20523;-80
2021/01/29 05:21:48;;;;;;;17.45;10.65;;;1.10;95.30;;;;;;5103290;28;20044;-80
2021/01/29 05:24:38;;;;;;;14.98;9.52;;;1.10;95.20;;;;;;5080119;28;20137;-80
2021/01/29 05:27:49;;;;;;;15.77;10.27;;;1.00;95.00;;;;;;5092626;28;20027;-80
2021/01/29 05:30:41;;;;;;;14.75;10.18;;;1.00;95.10;;;;;;5092384;28;20043;-79
2021/01/29 05:33:19;;;;;;;16.20;9.88;;;1.00;95.10;;;;;;5092532;28;20358;-78
2021/01/29 05:36:06;;;;;;;18.27;10.57;;;1.10;95.10;;;;;;5092437;28;20031;-80
2021/01/29 05:38:48;;;;;;;19.13;12.38;;;1.10;95.10;;;;;;5091704;28;20039;-79
2021/01/29 05:41:50;;;;;;;21.05;10.63;;;1.20;95.20;;;;;;5092786;28;20020;-79
2021/01/29 05:44:44;;;;;;;13.75;10.00;;;1.20;95.10;;;;;;5086758;28;20027;-79
2021/01/29 05:47:38;;;;;;;21.85;13.07;;;1.10;94.90;;;;;;5091782;28;20476;-79
2021/01/29 05:50:20;;;;;;;16.40;10.48;;;1.10;95.10;;;;;;5079676;28;20020;-78
2021/01/29 05:53:12;;;;;;;20.95;11.07;;;1.20;95.10;;;;;;5098241;28;20028;-78
2021/01/29 05:56:00;;;;;;;16.13;10.77;;;1.20;95.10;;;;;;5090525;28;20043;-79
2021/01/29 05:59:01;;;;;;;15.23;10.80;;;1.20;95.00;;;;;;5084928;28;20107;-79
2021/01/29 06:01:44;;;;;;;18.45;10.52;;;1.20;95.00;;;;;;5091912;28;20044;-80
2021/01/29 06:04:54;;;;;;;15.30;12.13;;;1.20;94.90;;;;;;5091670;28;20362;-81
2021/01/29 06:07:20;;;;;;;22.42;13.00;;;1.20;94.90;;;;;;5087038;28;20028;-80
2021/01/29 06:10:07;;;;;;;21.30;13.15;;;1.20;94.90;;;;;;5090620;28;20028;-80
2021/01/29 06:12:48;;;;;;;20.25;13.02;;;1.30;95.00;;;;;;5092357;28;20027;-81
2021/01/29 06:15:41;;;;;;;20.00;12.27;;;1.30;94.80;;;;;;5092042;28;20034;-79
2021/01/29 06:18:43;;;;;;;20.30;12.63;;;1.30;94.80;;;;;;5088056;28;20111;-78
2021/01/29 06:21:46;;;;;;;23.48;12.88;;;1.20;94.80;;;;;;5099754;28;20181;-80
2021/01/29 06:24:55;;;;;;;25.83;13.60;;;1.30;94.90;;;;;;5096163;28;20361;-75
2021/01/29 06:28:05;;;;;;;30.83;14.75;;;1.20;95.00;;;;;;5086128;28;20045;-78
2021/01/29 06:44:49;;;;;;;33.27;17.67;;;1.20;95.20;;;;;;5008860;28;20037;-79
2021/01/29 06:50:51;;;;;;;32.10;17.55;;;1.30;95.30;;;;;;5005467;28;20092;-80
2021/01/29 06:57:22;;;;;;;;;;;;;;;;;;;;;
2021/01/29 07:00:12;;;;;;;38.15;21.08;;;1.50;95.30;;;;;;5012724;28;20050;-79
2021/01/29 07:02:48;;;;;;;37.80;19.80;;;1.50;95.20;;;;;;5012787;28;20531;-79
2021/01/29 07:05:31;;;;;;;39.22;20.17;;;1.50;95.30;;;;;;5012905;28;20050;-79
2021/01/29 07:08:07;;;;;;;39.40;19.65;;;1.50;95.20;;;;;;5063439;28;20392;-80
2021/01/29 07:11:02;;;;;;;38.50;22.88;;;1.60;95.30;;;;;;5069498;28;20021;-80
2021/01/29 07:13:41;;;;;;;35.25;18.27;;;1.50;95.30;;;;;;5070868;28;20029;-80
2021/01/29 07:16:34;;;;;;;42.22;20.70;;;1.60;95.20;;;;;;5072770;28;20415;-79
2021/01/29 07:19:25;;;;;;;42.13;21.77;;;1.50;95.40;;;;;;5080372;28;20470;-80
2021/01/29 07:22:22;;;;;;;39.90;20.58;;;1.60;95.40;;;;;;5082218;28;20123;-79
2021/01/29 07:25:07;;;;;;;37.78;19.90;;;1.60;95.40;;;;;;5093456;28;20050;-77
2021/01/29 07:27:56;;;;;;;45.83;22.88;;;1.60;95.40;;;;;;5082608;28;20028;-78
2021/01/29 07:30:35;;;;;;;40.58;23.80;;;1.60;95.30;;;;;;5094477;28;20016;-77
2021/01/29 07:33:05;;;;;;;50.08;21.40;;;1.60;95.40;;;;;;5094663;28;20442;-78
2021/01/29 07:35:50;;;;;;;42.30;22.98;;;1.60;95.20;;;;;;5094345;28;20023;-80
2021/01/29 07:38:37;;;;;;;40.45;24.73;;;1.70;95.50;;;;;;5094502;28;20024;-79
2021/01/29 07:41:11;;;;;;;;;;;1.70;95.40;;;;;;5081841;28;20545;-78
2021/01/29 07:44:02;;;;;;;42.22;21.48;;;1.80;95.60;;;;;;5094169;28;19912;-81
2021/01/29 07:46:41;;;;;;;41.95;21.58;;;1.90;95.30;;;;;;5094493;28;20370;-78
2021/01/29 07:49:31;;;;;;;44.13;23.70;;;1.90;95.30;;;;;;5094205;28;20028;-80
2021/01/29 07:52:03;;;;;;;48.35;23.27;;;2.00;95.40;;;;;;5083092;28;20020;-81
2021/01/29 07:54:50;;;;;;;40.80;21.60;;;2.10;95.30;;;;;;5093904;28;20027;-77
2021/01/29 07:57:48;;;;;;;39.40;22.98;;;2.30;95.40;;;;;;5094172;28;20517;-80
2021/01/29 08:00:22;;;;;;;38.70;22.92;;;2.30;94.90;;;;;;5093417;28;20024;-78
2021/01/29 08:03:15;;;;;;;36.25;19.83;;;2.30;94.70;;;;;;5094046;28;20611;-79
2021/01/29 08:06:02;;;;;;;38.17;23.10;;;2.30;94.80;;;;;;5094013;28;20099;-78
2021/01/29 08:08:34;;;;;;;35.92;20.20;;;2.30;94.60;;;;;;5093766;28;20039;-78
2021/01/29 08:11:02;;;;;;;33.47;20.15;;;2.40;94.40;;;;;;5094035;28;20024;-79
2021/01/29 08:13:36;;;;;;;34.75;20.48;;;2.20;93.90;;;;;;5095137;28;20508;-78
2021/01/29 08:16:38;;;;;;;30.80;17.08;;;2.20;94.00;;;;;;5094532;28;20020;-81
2021/01/29 08:19:10;;;;;;;35.30;19.88;;;2.30;93.80;;;;;;5106305;28;20429;-79
2021/01/29 08:22:07;;;;;;;33.10;18.65;;;2.30;93.70;;;;;;5087073;28;20210;-82
2021/01/29 08:24:42;;;;;;;30.70;17.23;;;2.30;93.50;;;;;;5093619;28;20043;-80
2021/01/29 08:27:32;;;;;;;28.52;16.48;;;2.30;93.30;;;;;;5092102;28;20106;-82
2021/01/29 08:30:19;;;;;;;33.15;16.42;;;2.30;93.00;;;;;;5087442;28;20028;-80
2021/01/29 08:32:57;;;;;;;;;;;2.30;92.70;;;;;;5095080;28;20055;-80
2021/01/29 08:35:41;;;;;;;26.15;15.10;;;2.40;93.00;;;;;;5089974;28;20426;-78
2021/01/29 08:38:41;;;;;;;30.00;15.13;;;2.50;92.50;;;;;;5093762;28;20046;-80
2021/01/29 08:41:07;;;;;;;30.38;18.65;;;2.50;92.40;;;;;;5030816;28;20044;-79
2021/01/29 08:43:48;;;;;;;33.17;17.40;;;2.60;92.30;;;;;;5014331;28;20042;-79
2021/01/29 08:46:39;;;;;;;27.50;17.13;;;2.60;92.00;;;;;;5030713;28;20035;-79
2021/01/29 08:49:04;;;;;;;35.63;20.08;;;2.60;91.90;;;;;;5030811;28;20034;-79
2021/01/29 08:51:41;;;;;;;28.02;15.90;;;2.60;91.90;;;;;;5013757;28;20034;-80
2021/01/29 08:54:31;;;;;;;29.75;18.42;;;2.60;92.00;;;;;;5030654;28;20072;-79
2021/01/29 08:57:09;;;;;;;31.70;20.02;;;2.70;92.00;;;;;;5019932;28;20040;-79
2021/01/29 08:59:38;;;;;;;40.08;22.40;;;2.80;91.80;;;;;;5031251;28;20040;-80
2021/01/29 09:02:25;;;;;;;29.83;18.38;;;3.00;91.90;;;;;;5014002;28;20025;-79
2021/01/29 09:05:06;;;;;;;;;;;3.20;91.70;;;;;;5030654;28;20456;-80
2021/01/29 09:07:41;;;;;;;36.72;20.23;;;3.20;91.70;;;;;;5013799;28;19912;-80
2021/01/29 09:10:10;;;;;;;31.50;18.17;;;3.20;91.40;;;;;;5030204;28;20112;-79
2021/01/29 09:12:37;;;;;;;36.95;21.27;;;3.20;91.20;;;;;;5013599;28;20033;-79
2021/01/29 09:15:19;;;;;;;34.78;20.13;;;3.10;91.10;;;;;;5030932;28;20022;-81
2021/01/29 09:17:56;;;;;;;31.95;19.42;;;3.10;91.00;;;;;;5057697;28;20032;-80
2021/01/29 09:20:27;;;;;;;34.97;19.60;;;3.00;90.80;;;;;;5091502;28;20036;-80
2021/01/29 09:22:57;;;;;;;32.50;20.55;;;3.00;90.90;;;;;;5093493;28;20020;-78
2021/01/29 09:25:34;;;;;;;30.27;20.05;;;2.90;90.70;;;;;;5091162;28;20397;-79
2021/01/29 09:28:13;;;;;;;30.58;19.77;;;2.80;90.90;;;;;;5091412;28;20362;-80
2021/01/29 09:30:42;;;;;;;32.75;18.40;;;2.70;90.90;;;;;;5091942;28;20016;-78
2021/01/29 09:33:29;;;;;;;33.72;21.02;;;2.70;91.00;;;;;;5091743;28;20432;-80
2021/01/29 09:36:17;;;;;;;28.20;17.52;;;2.60;91.00;;;;;;5092714;28;20024;-79
2021/01/29 09:38:58;;;;;;;32.97;19.45;;;2.60;91.10;;;;;;5087885;28;20039;-80
2021/01/29 09:41:30;;;;;;;30.75;17.88;;;2.70;91.10;;;;;;5092426;28;20020;-80
2021/01/29 09:44:21;;;;;;;28.40;17.25;;;2.70;91.10;;;;;;5092024;28;20040;-78
2021/01/29 09:46:52;;;;;;;32.45;17.92;;;2.70;91.10;;;;;;5092264;28;20016;-79
2021/01/29 09:49:30;;;;;;;28.95;17.38;;;2.70;91.00;;;;;;5091799;28;20484;-79
2021/01/29 09:52:17;;;;;;;28.02;15.48;;;2.80;90.80;;;;;;5092430;28;20028;-80
2021/01/29 09:55:23;;;;;;;23.33;13.30;;;2.80;90.30;;;;;;5091714;28;20047;-78
2021/01/29 09:58:22;;;;;;;23.70;14.15;;;2.70;90.00;;;;;;5012816;28;20032;-81
2021/01/29 10:01:03;;;;;;;26.85;15.25;;;2.70;90.20;;;;;;5029620;28;20033;-79
2021/01/29 10:03:35;;;;;;;20.15;13.55;;;2.70;90.10;;;;;;5013051;28;20094;-79
2021/01/29 10:06:12;;;;;;;29.65;14.57;;;2.70;90.10;;;;;;5029602;28;20033;-79
2021/01/29 10:08:45;;;;;;;22.33;14.88;;;2.70;89.90;;;;;;4999673;28;20057;-81
2021/01/29 10:12:22;;;;;;;;;;;;;;;;;;;;;
2021/01/29 10:15:03;;;;;;;27.40;15.45;;;2.80;90.00;;;;;;5008415;28;20059;-81
2021/01/29 10:17:46;;;;;;;26.95;14.10;;;2.90;89.80;;;;;;5013142;28;20463;-79
2021/01/29 10:20:27;;;;;;;25.85;15.20;;;2.70;88.90;;;;;;5029365;28;20128;-79
2021/01/29 10:23:23;;;;;;;23.63;14.50;;;2.70;89.20;;;;;;5029621;28;20026;-79
2021/01/29 10:26:09;;;;;;;22.13;12.18;;;2.70;89.20;;;;;;5007698;28;20041;-78
2021/01/29 10:28:53;;;;;;;18.25;11.23;;;2.60;88.50;;;;;;5034002;28;20021;-80
2021/01/29 10:31:22;;;;;;;20.77;11.73;;;2.50;86.70;;;;;;5034024;28;20123;-81
2021/01/29 10:33:58;;;;;;;13.18;7.85;;;2.50;86.60;;;;;;5092393;28;20101;-80
2021/01/29 10:36:28;;;;;;;16.45;9.57;;;2.60;85.50;;;;;;5096028;28;20077;-80
2021/01/29 10:38:54;;;;;;;12.15;7.80;;;2.70;84.60;;;;;;5095392;28;20473;-80
2021/01/29 10:41:47;;;;;;;13.45;8.15;;;2.80;84.30;;;;;;5095873;28;20028;-82
2021/01/29 10:44:18;;;;;;;13.88;10.07;;;2.80;83.10;;;;;;5095831;28;20125;-78
2021/01/29 10:47:05;;;;;;;17.67;9.45;;;2.70;82.50;;;;;;5095110;28;20055;-80
2021/01/29 10:50:05;;;;;;;12.75;8.35;;;2.80;82.80;;;;;;5092144;28;20111;-81
2021/01/29 10:52:42;;;;;;;13.88;7.72;;;2.70;81.40;;;;;;5094051;28;20076;-81
2021/01/29 10:55:32;;;;;;;13.18;8.35;;;2.80;82.00;;;;;;5082653;28;20354;-80
2021/01/29 10:58:17;;;;;;;11.02;7.95;;;2.80;81.30;;;;;;5096205;28;20129;-80
2021/01/29 11:00:59;;;;;;;11.88;8.23;;;2.90;81.50;;;;;;5095503;28;20016;-81
2021/01/29 11:03:46;;;;;;;13.27;7.90;;;3.10;81.40;;;;;;5095553;28;20431;-79
2021/01/29 11:06:17;;;;;;;13.48;8.68;;;3.10;80.30;;;;;;5094469;28;20156;-79
2021/01/29 11:08:47;;;;;;;10.32;7.22;;;3.10;80.20;;;;;;5094033;28;20542;-79
2021/01/29 11:11:31;;;;;;;11.23;7.85;;;3.20;79.80;;;;;;5095519;28;20498;-80
2021/01/29 11:14:18;;;;;;;16.30;9.02;;;3.20;79.50;;;;;;5083246;28;20080;-80
2021/01/29 11:16:56;;;;;;;10.73;8.85;;;3.20;79.70;;;;;;5093704;28;20508;-79
2021/01/29 11:19:38;;;;;;;10.25;7.28;;;3.20;79.30;;;;;;5095549;28;20021;-81
2021/01/29 11:22:27;;;;;;;10.75;7.22;;;3.30;78.90;;;;;;5095923;28;20040;-79
2021/01/29 11:25:48;;;;;;;9.43;6.53;;;3.20;78.20;;;;;;5094093;28;20047;-81
2021/01/29 11:28:43;;;;;;;8.20;6.15;;;3.10;78.30;;;;;;5101242;28;20093;-79
2021/01/29 11:31:53;;;;;;;6.53;5.80;;;3.00;78.50;;;;;;5084191;28;20028;-81
2021/01/29 11:34:54;;;;;;;6.93;5.38;;;2.80;77.10;;;;;;5094349;28;20043;-79
2021/01/29 11:38:24;;;;;;;11.43;6.30;;;2.70;76.70;;;;;;5086810;28;20081;-80
2021/01/29 11:40:56;;;;;;;10.15;6.82;;;2.60;77.90;;;;;;5030092;28;20028;-78
2021/01/29 11:43:30;;;;;;;8.20;6.25;;;2.70;78.20;;;;;;5094419;28;20451;-80
2021/01/29 11:46:36;;;;;;;7.93;6.03;;;2.70;78.10;;;;;;5094734;28;20020;-80
2021/01/29 11:49:02;;;;;;;10.80;6.60;;;2.70;77.50;;;;;;5094378;28;20024;-80
2021/01/29 11:51:58;;;;;;;8.05;5.50;;;2.70;77.50;;;;;;5096211;28;20089;-80
2021/01/29 11:54:52;;;;;;;8.18;5.30;;;2.70;77.80;;;;;;5094647;28;20043;-78
2021/01/29 11:57:52;;;;;;;10.00;6.25;;;2.70;77.40;;;;;;5093141;28;20070;-79
2021/01/29 12:00:48;;;;;;;9.52;4.80;;;2.60;76.70;;;;;;5081879;28;20019;-79
2021/01/29 12:03:30;;;;;;;6.80;5.15;;;2.50;76.50;;;;;;5094066;28;20020;-79
2021/01/29 12:06:00;;;;;;;7.55;5.20;;;2.50;76.90;;;;;;5094209;28;20020;-80
2021/01/29 12:08:38;;;;;;;6.43;5.07;;;2.40;77.10;;;;;;5092625;28;20133;-80
2021/01/29 12:11:43;;;;;;;7.28;5.38;;;2.40;77.60;;;;;;5092740;28;20024;-80
2021/01/29 12:14:39;;;;;;;6.78;4.68;;;2.40;77.80;;;;;;5052106;28;20454;-78
2021/01/29 12:17:08;;;;;;;9.20;5.60;;;2.40;78.20;;;;;;5100311;28;20031;-79
2021/01/29 12:19:44;;;;;;;7.65;6.03;;;2.30;78.00;;;;;;5101932;28;20024;-79
2021/01/29 12:22:34;;;;;;;7.05;5.05;;;2.30;78.50;;;;;;5093434;28;20452;-78
2021/01/29 12:25:32;;;;;;;6.40;4.78;;;2.20;78.70;;;;;;5092188;28;20036;-79
2021/01/29 12:28:22;;;;;;;7.50;4.90;;;2.30;79.10;;;;;;5093815;28;20024;-78
2021/01/29 12:31:11;;;;;;;6.18;4.93;;;2.30;79.10;;;;;;5081077;28;20024;-79
2021/01/29 12:33:55;;;;;;;9.65;6.65;;;2.20;79.40;;;;;;5093356;28;20016;-80
2021/01/29 12:36:26;;;;;;;8.63;5.95;;;2.20;79.90;;;;;;5092606;28;20023;-81
2021/01/29 12:39:03;;;;;;;11.27;8.10;;;2.10;80.00;;;;;;5091559;28;20024;-80
2021/01/29 12:41:37;;;;;;;;;;;2.20;80.50;;;;;;5092403;28;20397;-78
2021/01/29 12:44:10;;;;;;;5.90;5.25;;;2.20;80.70;;;;;;5093883;28;20007;-79
2021/01/29 12:46:44;;;;;;;7.07;5.95;;;2.10;80.80;;;;;;5091954;28;20027;-79
2021/01/29 12:49:49;;;;;;;8.32;6.47;;;2.10;81.10;;;;;;5091891;28;20024;-81
2021/01/29 12:52:27;;;;;;;8.20;5.93;;;2.00;81.60;;;;;;5081456;28;20040;-79
2021/01/29 12:54:58;;;;;;;8.63;5.95;;;1.90;81.80;;;;;;5093174;28;20027;-80
2021/01/29 12:57:30;;;;;;;10.70;6.57;;;2.00;82.30;;;;;;5093635;28;20051;-78
2021/01/29 13:00:41;;;;;;;10.35;6.68;;;2.00;82.50;;;;;;5093894;28;20031;-80
2021/01/29 13:03:35;;;;;;;9.45;6.40;;;2.00;82.90;;;;;;5093192;28;20061;-80
2021/01/29 13:06:21;;;;;;;12.48;7.97;;;1.90;83.20;;;;;;5093372;28;20044;-81
2021/01/29 13:09:36;;;;;;;13.82;9.38;;;2.00;83.60;;;;;;5089635;28;20024;-80
2021/01/29 13:12:25;;;;;;;12.88;7.97;;;2.00;83.50;;;;;;5091590;28;20030;-79
2021/01/29 13:15:22;;;;;;;9.05;7.32;;;2.10;83.40;;;;;;5091407;28;20059;-79
2021/01/29 13:18:03;;;;;;;12.82;6.15;;;2.10;83.30;;;;;;5092844;28;20024;-79
2021/01/29 13:20:33;;;;;;;12.48;7.57;;;2.00;83.20;;;;;;5092405;28;20048;-80
2021/01/29 13:23:23;;;;;;;8.13;6.50;;;2.00;83.70;;;;;;5105089;28;20073;-79
2021/01/29 13:26:25;;;;;;;8.73;6.05;;;2.00;83.60;;;;;;5080177;28;20024;-79
2021/01/29 13:29:19;;;;;;;7.45;6.13;;;2.00;84.00;;;;;;5106369;28;20044;-79
2021/01/29 13:31:46;;;;;;;8.45;6.55;;;2.00;83.70;;;;;;5092375;28;20100;-79
2021/01/29 13:34:25;;;;;;;9.48;6.05;;;2.00;83.50;;;;;;5093845;28;20104;-79
2021/01/29 13:37:07;;;;;;;7.60;5.85;;;1.90;83.30;;;;;;5090932;28;20066;-79
2021/01/29 13:39:38;;;;;;;8.70;6.60;;;1.90;83.60;;;;;;5093736;28;20120;-78
2021/01/29 13:42:19;;;;;;;9.48;6.43;;;1.90;83.50;;;;;;5091287;28;20035;-79
2021/01/29 13:44:47;;;;;;;8.45;6.80;;;2.00;83.50;;;;;;5090962;28;20035;-79
2021/01/29 13:47:35;;;;;;;9.07;4.88;;;2.00;83.20;;;;;;5093931;28;20027;-78
2021/01/29 13:50:40;;;;;;;7.18;5.30;;;2.00;82.80;;;;;;5078924;28;20020;-81
2021/01/29 13:53:12;;;;;;;7.32;6.00;;;2.00;82.80;;;;;;5057547;28;20145;-81
2021/01/29 13:55:46;;;;;;;7.57;5.95;;;2.00;82.80;;;;;;5090776;28;20016;-80
2021/01/29 13:58:15;;;;;;;8.63;6.60;;;2.00;82.80;;;;;;5091045;28;20067;-80
2021/01/29 14:01:02;;;;;;;8.38;5.28;;;2.00;82.80;;;;;;5092246;28;20107;-79
2021/01/29 14:03:45;;;;;;;6.57;5.10;;;2.00;83.20;;;;;;5092069;28;20047;-78
2021/01/29 14:06:11;;;;;;;7.45;5.78;;;2.00;82.60;;;;;;5092008;28;20765;-80
2021/01/29 14:08:37;;;;;;;9.43;6.72;;;2.00;82.70;;;;;;5078172;28;20051;-81
2021/01/29 14:11:22;;;;;;;8.00;5.95;;;2.00;82.60;;;;;;5092501;28;20016;-80
2021/01/29 14:14:24;;;;;;;8.73;5.32;;;2.00;82.60;;;;;;5078897;28;20020;-80
2021/01/29 14:17:33;;;;;;;8.75;5.60;;;2.00;82.70;;;;;;5091762;28;20016;-80
2021/01/29 14:20:17;;;;;;;8.82;6.30;;;1.80;82.40;;;;;;5089831;28;20027;-80
2021/01/29 14:23:07;;;;;;;8.15;5.00;;;1.80;82.90;;;;;;5091929;28;20030;-81